sensor_id;sensor_type;location;lat;lon;timestamp;pressure;altitude;pressure_sealevel;temperature;humidity
12594;BME280;6362;50.208;9.182;2022-09-09T00:00:56;99379.22;;;14.42;100.00
12594;BME280;6362;50.208;9.182;2022-09-09T00:03:27;99378.31;;;14.45;100.00
12594;BME280;6362;50.208;9.182;2022-09-09T00:06:08;99376.56;;;14.48;100.00
12594;BME280;6362;50.208;9.182;2022-09-09T00:11:39;99378.22;;;14.52;100.00
12594;BME280;6362;50.208;9.182;2022-09-09T00:14:13;99377.31;;;14.58;100.00
12594;BME280;6362;50.208;9.182;2022-09-09T00:16:46;99373.84;;;14.62;100.00
12594;BME280;6362;50.208;9.182;2022-09-09T00:19:23;99374.59;;;14.70;100.00
12594;BME280;6362;50.208;9.182;2022-09-09T00:22:01;99378.84;;;14.73;100.00
12594;BME280;6362;50.208;9.182;2022-09-09T00:24:52;99375.38;;;14.75;100.00
12594;BME280;6362;50.208;9.182;2022-09-09T00:27:40;99377.81;;;14.83;100.00
12594;BME280;6362;50.208;9.182;2022-09-09T00:30:25;99380.28;;;14.91;100.00
12594;BME280;6362;50.208;9.182;2022-09-09T00:32:59;99369.88;;;15.00;100.00
12594;BME280;6362;50.208;9.182;2022-09-09T00:35:35;99373.28;;;15.01;100.00
12594;BME280;6362;50.208;9.182;2022-09-09T00:38:12;99369.78;;;15.05;100.00
12594;BME280;6362;50.208;9.182;2022-09-09T00:40:48;99365.44;;;15.10;100.00
12594;BME280;6362;50.208;9.182;2022-09-09T00:43:27;99366.00;;;15.27;100.00
12594;BME280;6362;50.208;9.182;2022-09-09T00:48:59;99356.66;;;15.22;100.00
12594;BME280;6362;50.208;9.182;2022-09-09T00:57:20;99366.16;;;15.18;100.00
12594;BME280;6362;50.208;9.182;2022-09-09T00:59:56;99364.44;;;15.18;100.00
12594;BME280;6362;50.208;9.182;2022-09-09T01:02:29;99365.28;;;15.17;100.00
12594;BME280;6362;50.208;9.182;2022-09-09T01:05:02;99361.94;;;15.15;100.00
12594;BME280;6362;50.208;9.182;2022-09-09T01:07:30;99357.66;;;15.13;100.00
12594;BME280;6362;50.208;9.182;2022-09-09T01:09:59;99367.13;;;15.11;100.00
12594;BME280;6362;50.208;9.182;2022-09-09T01:12:38;99378.22;;;15.13;100.00
12594;BME280;6362;50.208;9.182;2022-09-09T01:15:17;99371.22;;;15.23;100.00
12594;BME280;6362;50.208;9.182;2022-09-09T01:20:17;99367.59;;;15.34;100.00
12594;BME280;6362;50.208;9.182;2022-09-09T01:25:56;99366.84;;;15.29;100.00
12594;BME280;6362;50.208;9.182;2022-09-09T01:28:29;99364.25;;;15.29;100.00
12594;BME280;6362;50.208;9.182;2022-09-09T01:30:57;99367.69;;;15.28;100.00
12594;BME280;6362;50.208;9.182;2022-09-09T01:33:24;99357.41;;;15.28;100.00
12594;BME280;6362;50.208;9.182;2022-09-09T01:35:57;99361.78;;;15.25;100.00
12594;BME280;6362;50.208;9.182;2022-09-09T01:38:26;99357.38;;;15.30;100.00
12594;BME280;6362;50.208;9.182;2022-09-09T01:40:53;99362.59;;;15.27;100.00
12594;BME280;6362;50.208;9.182;2022-09-09T01:43:20;99361.72;;;15.28;100.00
12594;BME280;6362;50.208;9.182;2022-09-09T01:45:47;99354.97;;;15.20;100.00
12594;BME280;6362;50.208;9.182;2022-09-09T01:48:15;99355.06;;;15.14;100.00
12594;BME280;6362;50.208;9.182;2022-09-09T01:50:40;99356.88;;;15.09;100.00
12594;BME280;6362;50.208;9.182;2022-09-09T01:53:06;99356.13;;;15.04;100.00
12594;BME280;6362;50.208;9.182;2022-09-09T01:55:38;99357.03;;;14.98;100.00
12594;BME280;6362;50.208;9.182;2022-09-09T01:58:26;99350.31;;;14.91;100.00
12594;BME280;6362;50.208;9.182;2022-09-09T02:01:29;99346.09;;;14.86;100.00
12594;BME280;6362;50.208;9.182;2022-09-09T02:03:57;99350.47;;;14.81;100.00
12594;BME280;6362;50.208;9.182;2022-09-09T02:06:35;99354.84;;;14.75;100.00
12594;BME280;6362;50.208;9.182;2022-09-09T02:09:04;99354.00;;;14.73;100.00
12594;BME280;6362;50.208;9.182;2022-09-09T02:11:30;99353.09;;;14.76;100.00
12594;BME280;6362;50.208;9.182;2022-09-09T02:14:02;99349.72;;;14.74;100.00
12594;BME280;6362;50.208;9.182;2022-09-09T02:19:12;99358.53;;;14.53;100.00
12594;BME280;6362;50.208;9.182;2022-09-09T02:21:43;99360.34;;;14.48;100.00
12594;BME280;6362;50.208;9.182;2022-09-09T02:24:11;99362.09;;;14.43;100.00
12594;BME280;6362;50.208;9.182;2022-09-09T02:26:41;99358.75;;;14.36;100.00
12594;BME280;6362;50.208;9.182;2022-09-09T02:29:29;99358.81;;;14.31;100.00
12594;BME280;6362;50.208;9.182;2022-09-09T02:32:00;99363.09;;;14.31;100.00
12594;BME280;6362;50.208;9.182;2022-09-09T02:34:29;99354.63;;;14.26;100.00
12594;BME280;6362;50.208;9.182;2022-09-09T02:36:57;99361.50;;;14.24;100.00
12594;BME280;6362;50.208;9.182;2022-09-09T02:39:23;99363.28;;;14.17;100.00
12594;BME280;6362;50.208;9.182;2022-09-09T02:41:49;99352.13;;;14.20;100.00
12594;BME280;6362;50.208;9.182;2022-09-09T02:44:17;99359.00;;;14.18;100.00
12594;BME280;6362;50.208;9.182;2022-09-09T02:50:10;99359.06;;;14.13;100.00
12594;BME280;6362;50.208;9.182;2022-09-09T02:55:35;99359.09;;;14.10;100.00
12594;BME280;6362;50.208;9.182;2022-09-09T02:58:04;99362.53;;;14.09;100.00
12594;BME280;6362;50.208;9.182;2022-09-09T03:00:32;99357.38;;;14.09;100.00
12594;BME280;6362;50.208;9.182;2022-09-09T03:02:58;99355.72;;;14.05;100.00
12594;BME280;6362;50.208;9.182;2022-09-09T03:05:24;99359.16;;;14.05;100.00
12594;BME280;6362;50.208;9.182;2022-09-09T03:07:49;99365.97;;;14.05;100.00
12594;BME280;6362;50.208;9.182;2022-09-09T03:10:16;99363.41;;;14.08;100.00
12594;BME280;6362;50.208;9.182;2022-09-09T03:12:42;99374.50;;;14.10;100.00
12594;BME280;6362;50.208;9.182;2022-09-09T03:15:08;99360.72;;;14.19;100.00
12594;BME280;6362;50.208;9.182;2022-09-09T03:17:35;99367.47;;;14.23;100.00
12594;BME280;6362;50.208;9.182;2022-09-09T03:20:02;99365.66;;;14.31;100.00
12594;BME280;6362;50.208;9.182;2022-09-09T03:22:28;99370.72;;;14.37;100.00
12594;BME280;6362;50.208;9.182;2022-09-09T03:24:53;99365.53;;;14.42;100.00
12594;BME280;6362;50.208;9.182;2022-09-09T03:27:19;99362.09;;;14.43;100.00
12594;BME280;6362;50.208;9.182;2022-09-09T03:29:45;99358.69;;;14.44;100.00
12594;BME280;6362;50.208;9.182;2022-09-09T03:32:10;99355.16;;;14.51;100.00
12594;BME280;6362;50.208;9.182;2022-09-09T03:34:36;99350.84;;;14.54;100.00
12594;BME280;6362;50.208;9.182;2022-09-09T03:37:04;99350.84;;;14.53;100.00
12594;BME280;6362;50.208;9.182;2022-09-09T03:39:30;99342.22;;;14.58;100.00
12594;BME280;6362;50.208;9.182;2022-09-09T03:41:56;99343.03;;;14.62;100.00
12594;BME280;6362;50.208;9.182;2022-09-09T03:44:21;99343.00;;;14.65;100.00
12594;BME280;6362;50.208;9.182;2022-09-09T03:46:47;99343.78;;;14.70;100.00
12594;BME280;6362;50.208;9.182;2022-09-09T03:49:12;99342.91;;;14.71;100.00
12594;BME280;6362;50.208;9.182;2022-09-09T03:51:38;99348.06;;;14.70;100.00
12594;BME280;6362;50.208;9.182;2022-09-09T03:54:04;99342.09;;;14.69;100.00
12594;BME280;6362;50.208;9.182;2022-09-09T03:56:30;99348.03;;;14.73;100.00
12594;BME280;6362;50.208;9.182;2022-09-09T03:58:56;99352.28;;;14.75;100.00
12594;BME280;6362;50.208;9.182;2022-09-09T04:01:23;99344.56;;;14.74;100.00
12594;BME280;6362;50.208;9.182;2022-09-09T04:03:48;99347.97;;;14.76;100.00
12594;BME280;6362;50.208;9.182;2022-09-09T04:06:15;99352.28;;;14.72;100.00
12594;BME280;6362;50.208;9.182;2022-09-09T04:08:42;99337.78;;;14.70;100.00
12594;BME280;6362;50.208;9.182;2022-09-09T04:11:08;99346.38;;;14.70;100.00
12594;BME280;6362;50.208;9.182;2022-09-09T04:13:34;99342.09;;;14.68;100.00
12594;BME280;6362;50.208;9.182;2022-09-09T04:16:01;99346.31;;;14.73;100.00
12594;BME280;6362;50.208;9.182;2022-09-09T04:18:28;99347.97;;;14.76;100.00
12594;BME280;6362;50.208;9.182;2022-09-09T04:20:54;99350.66;;;14.68;100.00
12594;BME280;6362;50.208;9.182;2022-09-09T04:23:20;99343.03;;;14.62;100.00
12594;BME280;6362;50.208;9.182;2022-09-09T04:25:48;99337.13;;;14.57;100.00
12594;BME280;6362;50.208;9.182;2022-09-09T04:28:15;99332.88;;;14.54;100.00
12594;BME280;6362;50.208;9.182;2022-09-09T04:30:41;99340.56;;;14.56;100.00
12594;BME280;6362;50.208;9.182;2022-09-09T04:33:07;99340.56;;;14.56;100.00
12594;BME280;6362;50.208;9.182;2022-09-09T04:35:33;99349.13;;;14.53;100.00
12594;BME280;6362;50.208;9.182;2022-09-09T04:37:59;99357.72;;;14.49;100.00
12594;BME280;6362;50.208;9.182;2022-09-09T04:40:24;99355.22;;;14.45;100.00
12594;BME280;6362;50.208;9.182;2022-09-09T04:42:50;99346.69;;;14.43;100.00
12594;BME280;6362;50.208;9.182;2022-09-09T04:45:16;99353.47;;;14.48;100.00
12594;BME280;6362;50.208;9.182;2022-09-09T04:47:41;99351.69;;;14.53;100.00
12594;BME280;6362;50.208;9.182;2022-09-09T04:50:08;99351.66;;;14.56;100.00
12594;BME280;6362;50.208;9.182;2022-09-09T04:52:34;99351.31;;;14.81;100.00
12594;BME280;6362;50.208;9.182;2022-09-09T04:55:01;99350.53;;;14.77;100.00
12594;BME280;6362;50.208;9.182;2022-09-09T04:57:26;99351.09;;;14.95;100.00
12594;BME280;6362;50.208;9.182;2022-09-09T04:59:52;99350.91;;;15.09;100.00
12594;BME280;6362;50.208;9.182;2022-09-09T05:02:17;99348.25;;;15.13;100.00
12594;BME280;6362;50.208;9.182;2022-09-09T05:04:43;99351.66;;;15.15;100.00
12594;BME280;6362;50.208;9.182;2022-09-09T05:07:08;99357.31;;;15.33;100.00
12594;BME280;6362;50.208;9.182;2022-09-09T05:09:34;99360.72;;;15.35;100.00
12594;BME280;6362;50.208;9.182;2022-09-09T05:12:00;99361.34;;;15.49;100.00
12594;BME280;6362;50.208;9.182;2022-09-09T05:14:25;99358.63;;;15.57;100.00
12594;BME280;6362;50.208;9.182;2022-09-09T05:16:51;99356.88;;;15.60;100.00
12594;BME280;6362;50.208;9.182;2022-09-09T05:19:17;99366.34;;;15.57;100.00
12594;BME280;6362;50.208;9.182;2022-09-09T05:21:44;99368.50;;;15.81;100.00
12594;BME280;6362;50.208;9.182;2022-09-09T05:24:09;99369.97;;;15.93;100.00
12594;BME280;6362;50.208;9.182;2022-09-09T05:26:35;99362.28;;;15.92;100.00
12594;BME280;6362;50.208;9.182;2022-09-09T05:29:00;99375.78;;;16.03;100.00
12594;BME280;6362;50.208;9.182;2022-09-09T05:31:26;99374.72;;;16.15;100.00
12594;BME280;6362;50.208;9.182;2022-09-09T05:33:53;99379.56;;;16.30;100.00
12594;BME280;6362;50.208;9.182;2022-09-09T05:36:21;99376.09;;;16.30;100.00
12594;BME280;6362;50.208;9.182;2022-09-09T05:38:47;99378.63;;;16.33;100.00
12594;BME280;6362;50.208;9.182;2022-09-09T05:41:14;99382.97;;;16.31;100.00
12594;BME280;6362;50.208;9.182;2022-09-09T05:43:43;99386.50;;;16.25;100.00
12594;BME280;6362;50.208;9.182;2022-09-09T05:46:23;99385.69;;;16.23;100.00
12594;BME280;6362;50.208;9.182;2022-09-09T05:48:50;99387.94;;;16.38;100.00
12594;BME280;6362;50.208;9.182;2022-09-09T05:51:25;99397.19;;;16.49;100.00
12594;BME280;6362;50.208;9.182;2022-09-09T05:53:51;99400.31;;;16.61;100.00
12594;BME280;6362;50.208;9.182;2022-09-09T05:56:19;99396.97;;;16.58;100.00
12594;BME280;6362;50.208;9.182;2022-09-09T05:58:46;99397.91;;;16.54;100.00
12594;BME280;6362;50.208;9.182;2022-09-09T06:01:19;99398.59;;;16.62;100.00
12594;BME280;6362;50.208;9.182;2022-09-09T06:03:47;99406.19;;;16.68;100.00
12594;BME280;6362;50.208;9.182;2022-09-09T06:06:18;99412.94;;;16.74;100.00
12594;BME280;6362;50.208;9.182;2022-09-09T06:08:46;99406.78;;;16.82;100.00
12594;BME280;6362;50.208;9.182;2022-09-09T06:11:14;99407.59;;;16.84;100.00
12594;BME280;6362;50.208;9.182;2022-09-09T06:13:40;99415.22;;;16.88;100.00
12594;BME280;6362;50.208;9.182;2022-09-09T06:16:14;99416.03;;;16.90;100.00
12594;BME280;6362;50.208;9.182;2022-09-09T06:18:40;99417.88;;;16.84;100.00
12594;BME280;6362;50.208;9.182;2022-09-09T06:21:20;99411.03;;;16.83;100.00
12594;BME280;6362;50.208;9.182;2022-09-09T06:23:46;99420.38;;;16.89;100.00
12594;BME280;6362;50.208;9.182;2022-09-09T06:26:27;99418.94;;;16.74;100.00
12594;BME280;6362;50.208;9.182;2022-09-09T06:28:54;99423.25;;;16.72;100.00
12594;BME280;6362;50.208;9.182;2022-09-09T06:31:22;99412.31;;;16.62;100.00
12594;BME280;6362;50.208;9.182;2022-09-09T06:33:52;99419.31;;;16.57;100.00
12594;BME280;6362;50.208;9.182;2022-09-09T06:36:22;99430.25;;;16.67;100.00
12594;BME280;6362;50.208;9.182;2022-09-09T06:38:48;99427.81;;;16.59;100.00
12594;BME280;6362;50.208;9.182;2022-09-09T06:41:15;99421.94;;;16.54;100.00
12594;BME280;6362;50.208;9.182;2022-09-09T06:43:41;99427.91;;;16.56;100.00
12594;BME280;6362;50.208;9.182;2022-09-09T06:46:11;99423.47;;;16.63;100.00
12594;BME280;6362;50.208;9.182;2022-09-09T06:48:38;99414.91;;;16.62;100.00
12594;BME280;6362;50.208;9.182;2022-09-09T06:51:18;99419.94;;;16.69;100.00
12594;BME280;6362;50.208;9.182;2022-09-09T06:53:45;99428.38;;;16.74;100.00
12594;BME280;6362;50.208;9.182;2022-09-09T06:58:37;99423.84;;;16.87;100.00
12594;BME280;6362;50.208;9.182;2022-09-09T07:01:08;99426.97;;;17.01;100.00
12594;BME280;6362;50.208;9.182;2022-09-09T07:03:34;99424.38;;;17.01;100.00
12594;BME280;6362;50.208;9.182;2022-09-09T07:06:01;99418.28;;;17.05;100.00
12594;BME280;6362;50.208;9.182;2022-09-09T07:08:27;99417.28;;;17.11;100.00
12594;BME280;6362;50.208;9.182;2022-09-09T07:10:52;99420.69;;;17.11;100.00
12594;BME280;6362;50.208;9.182;2022-09-09T07:13:28;99425.78;;;17.16;100.00
12594;BME280;6362;50.208;9.182;2022-09-09T07:15:53;99418.91;;;17.15;100.00
12594;BME280;6362;50.208;9.182;2022-09-09T07:18:19;99433.16;;;17.30;100.00
12594;BME280;6362;50.208;9.182;2022-09-09T07:20:55;99432.44;;;17.59;100.00
12594;BME280;6362;50.208;9.182;2022-09-09T07:23:22;99421.25;;;17.58;100.00
12594;BME280;6362;50.208;9.182;2022-09-09T07:25:48;99430.84;;;17.89;100.00
12594;BME280;6362;50.208;9.182;2022-09-09T07:28:14;99428.41;;;17.83;100.00
12594;BME280;6362;50.208;9.182;2022-09-09T07:30:40;99440.91;;;17.98;100.00
12594;BME280;6362;50.208;9.182;2022-09-09T07:33:06;99433.38;;;17.91;100.00
12594;BME280;6362;50.208;9.182;2022-09-09T07:35:32;99438.34;;;17.97;100.00
12594;BME280;6362;50.208;9.182;2022-09-09T07:37:57;99438.53;;;17.91;100.00
12594;BME280;6362;50.208;9.182;2022-09-09T07:40:24;99433.03;;;18.03;100.00
12594;BME280;6362;50.208;9.182;2022-09-09T07:42:49;99433.84;;;18.05;100.00
12594;BME280;6362;50.208;9.182;2022-09-09T07:45:15;99436.25;;;18.13;100.00
12594;BME280;6362;50.208;9.182;2022-09-09T07:47:40;99435.31;;;18.15;100.00
12594;BME280;6362;50.208;9.182;2022-09-09T07:50:10;99438.50;;;18.23;100.00
12594;BME280;6362;50.208;9.182;2022-09-09T07:52:35;99439.25;;;18.28;100.00
12594;BME280;6362;50.208;9.182;2022-09-09T07:55:02;99440.88;;;18.31;100.00
12594;BME280;6362;50.208;9.182;2022-09-09T07:57:28;99439.94;;;18.34;100.00
12594;BME280;6362;50.208;9.182;2022-09-09T07:59:56;99446.84;;;18.33;100.00
12594;BME280;6362;50.208;9.182;2022-09-09T08:02:23;99445.13;;;18.34;100.00
12594;BME280;6362;50.208;9.182;2022-09-09T08:04:49;99446.09;;;18.28;100.00
12594;BME280;6362;50.208;9.182;2022-09-09T08:07:15;99446.19;;;18.26;100.00
12594;BME280;6362;50.208;9.182;2022-09-09T08:09:41;99453.94;;;18.25;100.00
12594;BME280;6362;50.208;9.182;2022-09-09T08:12:07;99450.25;;;18.35;100.00
12594;BME280;6362;50.208;9.182;2022-09-09T08:14:33;99457.31;;;18.28;100.00
12594;BME280;6362;50.208;9.182;2022-09-09T08:16:58;99454.66;;;18.30;100.00
12594;BME280;6362;50.208;9.182;2022-09-09T08:19:24;99452.16;;;18.28;100.00
12594;BME280;6362;50.208;9.182;2022-09-09T08:21:50;99456.38;;;18.31;100.00
12594;BME280;6362;50.208;9.182;2022-09-09T08:24:16;99462.00;;;18.45;100.00
12594;BME280;6362;50.208;9.182;2022-09-09T08:26:45;99459.50;;;18.42;100.00
12594;BME280;6362;50.208;9.182;2022-09-09T08:29:13;99468.09;;;18.43;100.00
12594;BME280;6362;50.208;9.182;2022-09-09T08:31:46;99469.63;;;18.48;100.00
12594;BME280;6362;50.208;9.182;2022-09-09T08:34:12;99475.84;;;18.43;100.00
12594;BME280;6362;50.208;9.182;2022-09-09T08:36:45;99476.41;;;18.52;100.00
12594;BME280;6362;50.208;9.182;2022-09-09T08:39:13;99480.09;;;18.44;100.00
12594;BME280;6362;50.208;9.182;2022-09-09T08:41:55;99479.31;;;18.42;100.00
12594;BME280;6362;50.208;9.182;2022-09-09T08:52:27;99483.59;;;18.72;100.00
12594;BME280;6362;50.208;9.182;2022-09-09T08:57:37;99484.91;;;19.16;100.00
12594;BME280;6362;50.208;9.182;2022-09-09T09:00:04;99485.56;;;19.22;100.00
12594;BME280;6362;50.208;9.182;2022-09-09T09:02:42;99491.84;;;19.15;100.00
12594;BME280;6362;50.208;9.182;2022-09-09T09:10:48;99483.88;;;20.01;100.00
12594;BME280;6362;50.208;9.182;2022-09-09T09:16:01;99478.84;;;20.47;100.00
12594;BME280;6362;50.208;9.182;2022-09-09T09:18:28;99486.03;;;20.64;98.54
12594;BME280;6362;50.208;9.182;2022-09-09T09:21:06;99475.22;;;20.51;96.39
12594;BME280;6362;50.208;9.182;2022-09-09T09:23:44;99471.75;;;20.03;100.00
12594;BME280;6362;50.208;9.182;2022-09-09T09:26:11;99473.50;;;20.03;100.00
12594;BME280;6362;50.208;9.182;2022-09-09T09:28:42;99469.81;;;20.08;100.00
12594;BME280;6362;50.208;9.182;2022-09-09T09:31:11;99468.03;;;20.10;100.00
12594;BME280;6362;50.208;9.182;2022-09-09T09:36:11;99466.78;;;19.97;99.84
12594;BME280;6362;50.208;9.182;2022-09-09T09:38:58;99449.34;;;20.02;99.45
12594;BME280;6362;50.208;9.182;2022-09-09T09:41:41;99453.47;;;20.55;94.21
12594;BME280;6362;50.208;9.182;2022-09-09T09:46:52;99462.50;;;21.78;84.50
12594;BME280;6362;50.208;9.182;2022-09-09T09:49:18;99446.69;;;21.64;83.22
12594;BME280;6362;50.208;9.182;2022-09-09T09:51:44;99453.69;;;21.62;83.29
12594;BME280;6362;50.208;9.182;2022-09-09T09:56:38;99444.56;;;21.30;85.30
12594;BME280;6362;50.208;9.182;2022-09-09T09:59:05;99453.41;;;21.04;86.56
12594;BME280;6362;50.208;9.182;2022-09-09T10:01:32;99449.66;;;20.89;88.41
12594;BME280;6362;50.208;9.182;2022-09-09T10:04:01;99451.66;;;21.04;88.24
12594;BME280;6362;50.208;9.182;2022-09-09T10:06:35;99442.53;;;20.94;86.79
12594;BME280;6362;50.208;9.182;2022-09-09T10:09:03;99454.56;;;20.73;85.12
12594;BME280;6362;50.208;9.182;2022-09-09T10:11:52;99451.53;;;20.62;85.76
12594;BME280;6362;50.208;9.182;2022-09-09T10:14:28;99454.19;;;20.84;84.96
12594;BME280;6362;50.208;9.182;2022-09-09T10:22:32;99464.75;;;21.01;81.44
12594;BME280;6362;50.208;9.182;2022-09-09T10:30:24;99466.56;;;20.52;83.52
12594;BME280;6362;50.208;9.182;2022-09-09T10:35:41;99463.63;;;20.63;80.74
12594;BME280;6362;50.208;9.182;2022-09-09T10:38:15;99463.41;;;20.91;78.67
12594;BME280;6362;50.208;9.182;2022-09-09T10:46:32;99470.50;;;22.73;66.78
12594;BME280;6362;50.208;9.182;2022-09-09T10:52:05;99448.03;;;24.30;62.37
12594;BME280;6362;50.208;9.182;2022-09-09T10:57:13;99438.94;;;25.03;58.38
12594;BME280;6362;50.208;9.182;2022-09-09T10:59:47;99442.81;;;24.48;61.41
12594;BME280;6362;50.208;9.182;2022-09-09T11:02:29;99439.78;;;23.72;64.28
12594;BME280;6362;50.208;9.182;2022-09-09T11:05:18;99438.09;;;23.53;66.72
12594;BME280;6362;50.208;9.182;2022-09-09T11:07:49;99422.28;;;23.21;66.72
12594;BME280;6362;50.208;9.182;2022-09-09T11:13:01;99417.66;;;22.54;69.09
12594;BME280;6362;50.208;9.182;2022-09-09T11:15:39;99416.31;;;22.64;71.28
12594;BME280;6362;50.208;9.182;2022-09-09T11:18:19;99410.34;;;22.81;70.81
12594;BME280;6362;50.208;9.182;2022-09-09T11:20:49;99406.91;;;23.17;70.57
12594;BME280;6362;50.208;9.182;2022-09-09T11:23:29;99409.59;;;23.15;69.02
12594;BME280;6362;50.208;9.182;2022-09-09T11:26:01;99421.75;;;22.96;70.17
12594;BME280;6362;50.208;9.182;2022-09-09T11:40:21;99410.78;;;22.53;69.44
12594;BME280;6362;50.208;9.182;2022-09-09T11:42:48;99406.06;;;22.23;69.09
12594;BME280;6362;50.208;9.182;2022-09-09T11:45:27;99411.19;;;22.04;70.00
12594;BME280;6362;50.208;9.182;2022-09-09T11:47:59;99416.00;;;21.93;70.18
12594;BME280;6362;50.208;9.182;2022-09-09T11:52:51;99411.88;;;23.21;70.61
12594;BME280;6362;50.208;9.182;2022-09-09T11:55:31;99416.66;;;24.16;63.68
12594;BME280;6362;50.208;9.182;2022-09-09T11:58:06;99415.19;;;24.44;56.01
12594;BME280;6362;50.208;9.182;2022-09-09T12:08:43;99412.59;;;23.60;58.04
12594;BME280;6362;50.208;9.182;2022-09-09T12:11:10;99415.44;;;23.38;61.48
12594;BME280;6362;50.208;9.182;2022-09-09T12:13:36;99418.91;;;22.64;59.71
12594;BME280;6362;50.208;9.182;2022-09-09T12:16:01;99431.28;;;22.19;60.83
12594;BME280;6362;50.208;9.182;2022-09-09T12:18:35;99421.38;;;21.69;61.10
12594;BME280;6362;50.208;9.182;2022-09-09T12:21:27;99423.63;;;21.56;61.56
12594;BME280;6362;50.208;9.182;2022-09-09T12:24:23;99411.75;;;21.51;61.27
12594;BME280;6362;50.208;9.182;2022-09-09T12:27:16;99403.97;;;22.11;58.88
12594;BME280;6362;50.208;9.182;2022-09-09T12:29:53;99405.28;;;22.78;57.48
12594;BME280;6362;50.208;9.182;2022-09-09T12:32:25;99400.78;;;23.53;55.16
12594;BME280;6362;50.208;9.182;2022-09-09T12:35:02;99413.38;;;24.13;54.21
12594;BME280;6362;50.208;9.182;2022-09-09T12:37:54;99397.13;;;24.88;52.07
12594;BME280;6362;50.208;9.182;2022-09-09T12:40:40;99402.69;;;25.12;51.64
12594;BME280;6362;50.208;9.182;2022-09-09T12:43:19;99408.50;;;24.56;52.78
12594;BME280;6362;50.208;9.182;2022-09-09T12:45:46;99394.03;;;24.82;52.77
12594;BME280;6362;50.208;9.182;2022-09-09T12:48:18;99381.56;;;23.73;55.01
12594;BME280;6362;50.208;9.182;2022-09-09T12:53:50;99391.53;;;22.57;61.15
12594;BME280;6362;50.208;9.182;2022-09-09T12:56:19;99399.34;;;21.98;64.29
12594;BME280;6362;50.208;9.182;2022-09-09T12:58:47;99403.44;;;21.63;66.69
12594;BME280;6362;50.208;9.182;2022-09-09T13:01:28;99399.19;;;21.40;67.87
12594;BME280;6362;50.208;9.182;2022-09-09T13:03:55;99406.38;;;21.33;69.12
12594;BME280;6362;50.208;9.182;2022-09-09T13:06:23;99404.81;;;21.51;69.84
12594;BME280;6362;50.208;9.182;2022-09-09T13:08:51;99409.94;;;21.73;70.22
12594;BME280;6362;50.208;9.182;2022-09-09T13:11:21;99413.44;;;21.72;71.41
12594;BME280;6362;50.208;9.182;2022-09-09T13:13:54;99398.19;;;21.85;72.17
12594;BME280;6362;50.208;9.182;2022-09-09T13:16:25;99402.00;;;21.76;73.50
12594;BME280;6362;50.208;9.182;2022-09-09T13:18:52;99404.41;;;21.60;75.46
12594;BME280;6362;50.208;9.182;2022-09-09T13:23:54;99390.88;;;21.32;74.78
12594;BME280;6362;50.208;9.182;2022-09-09T13:26:25;99393.44;;;21.11;77.45
12594;BME280;6362;50.208;9.182;2022-09-09T13:28:54;99395.81;;;20.95;78.87
12594;BME280;6362;50.208;9.182;2022-09-09T13:31:38;99402.97;;;20.89;81.86
12594;BME280;6362;50.208;9.182;2022-09-09T13:34:13;99404.50;;;20.72;87.65
12594;BME280;6362;50.208;9.182;2022-09-09T13:36:40;99404.94;;;20.60;90.29
12594;BME280;6362;50.208;9.182;2022-09-09T13:39:15;99404.16;;;20.34;89.28
12594;BME280;6362;50.208;9.182;2022-09-09T13:41:43;99409.81;;;20.22;91.19
12594;BME280;6362;50.208;9.182;2022-09-09T13:44:25;99424.47;;;19.98;94.17
12594;BME280;6362;50.208;9.182;2022-09-09T13:47:05;99426.44;;;19.65;100.00
12594;BME280;6362;50.208;9.182;2022-09-09T13:49:32;99414.09;;;19.21;100.00
12594;BME280;6362;50.208;9.182;2022-09-09T13:54:31;99415.91;;;18.61;100.00
12594;BME280;6362;50.208;9.182;2022-09-09T13:56:56;99406.78;;;18.49;100.00
12594;BME280;6362;50.208;9.182;2022-09-09T13:59:22;99397.56;;;18.41;100.00
12594;BME280;6362;50.208;9.182;2022-09-09T14:01:49;99409.53;;;18.43;100.00
12594;BME280;6362;50.208;9.182;2022-09-09T14:04:17;99404.22;;;18.48;100.00
12594;BME280;6362;50.208;9.182;2022-09-09T14:06:43;99419.28;;;18.63;100.00
12594;BME280;6362;50.208;9.182;2022-09-09T14:09:12;99407.84;;;18.72;100.00
12594;BME280;6362;50.208;9.182;2022-09-09T14:11:38;99407.19;;;18.93;100.00
12594;BME280;6362;50.208;9.182;2022-09-09T14:14:04;99411.34;;;18.99;100.00
12594;BME280;6362;50.208;9.182;2022-09-09T14:16:30;99413.75;;;19.32;100.00
12594;BME280;6362;50.208;9.182;2022-09-09T14:18:56;99417.16;;;19.59;100.00
12594;BME280;6362;50.208;9.182;2022-09-09T14:21:22;99423.38;;;19.80;100.00
12594;BME280;6362;50.208;9.182;2022-09-09T14:23:48;99431.00;;;20.08;100.00
12594;BME280;6362;50.208;9.182;2022-09-09T14:26:14;99441.50;;;20.29;100.00
12594;BME280;6362;50.208;9.182;2022-09-09T14:28:39;99441.50;;;20.52;100.00
12594;BME280;6362;50.208;9.182;2022-09-09T14:31:05;99440.84;;;20.93;100.00
12594;BME280;6362;50.208;9.182;2022-09-09T14:33:31;99433.59;;;21.23;87.76
12594;BME280;6362;50.208;9.182;2022-09-09T14:35:58;99443.69;;;21.73;81.64
12594;BME280;6362;50.208;9.182;2022-09-09T14:38:24;99432.31;;;22.36;78.50
12594;BME280;6362;50.208;9.182;2022-09-09T14:40:49;99421.22;;;22.89;73.23
12594;BME280;6362;50.208;9.182;2022-09-09T14:43:15;99421.63;;;23.35;66.45
12594;BME280;6362;50.208;9.182;2022-09-09T14:45:40;99417.50;;;23.83;63.83
12594;BME280;6362;50.208;9.182;2022-09-09T14:48:06;99406.13;;;23.84;62.13
12594;BME280;6362;50.208;9.182;2022-09-09T14:50:31;99406.38;;;23.62;61.76
12594;BME280;6362;50.208;9.182;2022-09-09T14:52:57;99397.53;;;23.49;63.28
12594;BME280;6362;50.208;9.182;2022-09-09T14:55:22;99393.22;;;22.94;63.92
12594;BME280;6362;50.208;9.182;2022-09-09T14:57:47;99387.66;;;22.65;63.74
12594;BME280;6362;50.208;9.182;2022-09-09T15:00:13;99394.53;;;22.29;66.01
12594;BME280;6362;50.208;9.182;2022-09-09T15:02:39;99390.72;;;21.98;67.99
12594;BME280;6362;50.208;9.182;2022-09-09T15:05:05;99379.41;;;21.99;68.25
12594;BME280;6362;50.208;9.182;2022-09-09T15:07:30;99387.06;;;21.81;69.09
12594;BME280;6362;50.208;9.182;2022-09-09T15:09:57;99383.31;;;21.68;70.30